Time;durP1;ratioP1;P1;durP2;ratioP2;P2;SDS_P1;SDS_P2;PMS_P1;PMS_P2;Temp;Humidity;BMP_temperature;BMP_pressure;BME280_temperature;BME280_humidity;BME280_pressure;Samples;Min_cycle;Max_cycle;Signal;HPM_P1;HPM_P2
2022/12/05 00:02:10;;;;;;;25.17;16.50;;;;;;;3.44;100.00;100264.63;5014531;28;20601;-74
2022/12/05 00:04:36;;;;;;;25.15;16.98;;;;;;;3.44;100.00;100268.16;5018312;28;20300;-73
2022/12/05 00:07:03;;;;;;;27.13;17.25;;;;;;;3.38;100.00;100265.59;5026930;28;20256;-71
2022/12/05 00:09:30;;;;;;;25.92;15.90;;;;;;;3.34;100.00;100274.53;5020403;28;20670;-73
2022/12/05 00:11:56;;;;;;;29.38;16.63;;;;;;;3.29;100.00;100271.09;5041862;28;20311;-73
2022/12/05 00:14:23;;;;;;;29.73;16.60;;;;;;;3.34;100.00;100270.09;5042437;28;20202;-74
2022/12/05 00:16:51;;;;;;;27.75;16.77;;;;;;;3.33;100.00;100271.00;5036122;28;20198;-72
2022/12/05 00:19:17;;;;;;;28.60;17.52;;;;;;;3.37;100.00;100266.53;5039874;28;20224;-73
2022/12/05 00:21:44;;;;;;;25.75;16.83;;;;;;;3.36;100.00;100272.75;5030648;28;20645;-72
2022/12/05 00:24:13;;;;;;;25.58;17.77;;;;;;;3.33;100.00;100267.47;5034223;28;20229;-74
2022/12/05 00:26:40;;;;;;;26.42;17.05;;;;;;;3.36;100.00;100278.06;5034148;28;20610;-74
2022/12/05 00:29:06;;;;;;;26.17;16.83;;;;;;;3.41;100.00;100281.50;5038333;28;20193;-75
2022/12/05 00:31:33;;;;;;;26.02;16.05;;;;;;;3.37;100.00;100290.50;5040203;28;20360;-73
2022/12/05 00:34:01;;;;;;;25.13;16.02;;;;;;;3.31;100.00;100286.13;5040339;28;20655;-74
2022/12/05 00:36:30;;;;;;;23.88;15.73;;;;;;;3.42;100.00;100291.28;5033078;28;20230;-73
2022/12/05 00:38:59;;;;;;;25.65;16.73;;;;;;;3.43;100.00;100293.00;5036333;28;20646;-74
2022/12/05 00:41:27;;;;;;;22.10;15.00;;;;;;;3.43;100.00;100294.81;5040464;28;20679;-73
2022/12/05 00:43:55;;;;;;;22.38;15.95;;;;;;;3.41;100.00;100301.94;5033534;28;20293;-73
2022/12/05 00:46:24;;;;;;;25.23;15.50;;;;;;;3.41;100.00;100300.16;5037191;28;20266;-72
2022/12/05 00:48:53;;;;;;;24.33;16.23;;;;;;;3.41;100.00;100307.25;5013769;28;20206;-73
2022/12/05 00:51:22;;;;;;;26.50;16.63;;;;;;;3.43;100.00;100314.31;5033644;28;20222;-73
2022/12/05 00:53:50;;;;;;;25.55;15.70;;;;;;;3.41;100.00;100308.13;5033329;28;20194;-73
2022/12/05 00:56:24;;;;;;;27.70;16.88;;;;;;;3.42;100.00;100307.25;5027461;28;20213;-73
2022/12/05 00:58:53;;;;;;;25.02;15.68;;;;;;;3.44;100.00;100310.75;5041892;28;20296;-71
2022/12/05 01:01:22;;;;;;;24.02;16.40;;;;;;;3.47;100.00;100313.38;5041238;28;20222;-72
2022/12/05 01:03:52;;;;;;;25.73;15.73;;;;;;;3.50;100.00;100318.63;5018131;28;20205;-70
2022/12/05 01:06:18;;;;;;;25.50;16.17;;;;;;;3.50;100.00;100315.97;5022453;28;20299;-71
2022/12/05 01:08:46;;;;;;;26.98;15.48;;;;;;;3.49;100.00;100318.66;5034285;28;20288;-72
2022/12/05 01:11:16;;;;;;;23.00;16.15;;;;;;;3.50;100.00;100321.28;5034662;28;20313;-72
2022/12/05 01:13:43;;;;;;;24.02;15.52;;;;;;;3.50;100.00;100317.75;5054760;28;20655;-73
2022/12/05 01:16:18;;;;;;;26.33;16.88;;;;;;;3.48;100.00;100323.13;5038843;28;20288;-72
2022/12/05 01:18:45;;;;;;;25.88;17.00;;;;;;;3.55;100.00;100327.44;5045066;28;20205;-72
2022/12/05 01:21:12;;;;;;;23.50;15.95;;;;;;;3.47;100.00;100331.13;5045707;28;20319;-72
2022/12/05 01:23:39;;;;;;;27.08;16.33;;;;;;;3.42;100.00;100333.00;5052734;28;20815;-74
2022/12/05 01:26:09;;;;;;;27.13;15.98;;;;;;;3.45;100.00;100331.16;5050303;28;20206;-72
2022/12/05 01:28:36;;;;;;;21.90;15.43;;;;;;;3.46;100.00;100324.94;5049237;28;20193;-72
2022/12/05 01:31:06;;;;;;;28.70;16.67;;;;;;;3.37;100.00;100319.78;5053716;28;20223;-70
2022/12/05 01:33:34;;;;;;;26.73;16.40;;;;;;;3.44;100.00;100313.44;5045249;28;20198;-73
2022/12/05 01:36:00;;;;;;;22.35;15.05;;;;;;;3.44;100.00;100329.41;5038825;28;20280;-74
2022/12/05 01:38:27;;;;;;;23.73;16.13;;;;;;;3.42;100.00;100331.22;5036624;28;20205;-70
2022/12/05 01:41:01;;;;;;;26.77;15.45;;;;;;;3.44;100.00;100329.41;5039249;28;20294;-71
2022/12/05 01:43:29;;;;;;;29.02;17.88;;;;;;;3.45;100.00;100336.47;5047706;28;20304;-72
2022/12/05 01:45:56;;;;;;;25.65;15.88;;;;;;;3.47;100.00;100339.13;5041646;28;20588;-72
2022/12/05 01:48:25;;;;;;;28.08;16.35;;;;;;;3.48;100.00;100346.19;5045286;28;20281;-74
2022/12/05 01:50:52;;;;;;;21.13;15.10;;;;;;;3.49;100.00;100346.16;5038313;28;20218;-73
2022/12/05 01:53:19;;;;;;;27.45;16.92;;;;;;;3.48;100.00;100347.09;5023026;28;20239;-73
2022/12/05 01:55:49;;;;;;;26.17;16.25;;;;;;;3.51;100.00;100347.03;5023409;28;20230;-74
2022/12/05 01:58:16;;;;;;;28.88;17.30;;;;;;;3.43;100.00;100354.25;5038208;28;20202;-73
2022/12/05 02:00:44;;;;;;;28.67;17.42;;;;;;;3.42;100.00;100346.31;5022301;28;20273;-73
2022/12/05 02:03:14;;;;;;;28.73;17.65;;;;;;;3.39;100.00;100357.00;5036153;28;20202;-73
2022/12/05 02:05:41;;;;;;;26.75;15.50;;;;;;;3.32;100.00;100356.22;5031727;28;20277;-74
2022/12/05 02:08:10;;;;;;;29.63;19.33;;;;;;;3.22;100.00;100354.63;5037554;28;20202;-74
2022/12/05 02:10:40;;;;;;;30.55;18.95;;;;;;;2.93;100.00;100355.94;5037811;28;20216;-75
2022/12/05 02:13:17;;;;;;;29.90;17.50;;;;;;;3.01;100.00;100353.16;5041609;28;20245;-72
2022/12/05 02:15:52;;;;;;;31.40;18.05;;;;;;;2.97;100.00;100347.00;5038002;28;20735;-74
2022/12/05 02:18:30;;;;;;;27.90;18.23;;;;;;;2.97;100.00;100343.47;5051391;28;20265;-74
2022/12/05 02:21:14;;;;;;;26.98;15.95;;;;;;;2.98;100.00;100346.09;5044476;28;20216;-74
2022/12/05 02:24:10;;;;;;;29.95;16.95;;;;;;;2.81;100.00;100351.69;5037074;28;20209;-73
2022/12/05 02:26:52;;;;;;;28.45;17.33;;;;;;;2.89;100.00;100356.88;5036022;28;20201;-74
2022/12/05 02:30:04;;;;;;;30.88;17.20;;;;;;;2.96;100.00;100350.56;5040796;28;20202;-74
2022/12/05 02:32:45;;;;;;;33.20;18.95;;;;;;;2.79;100.00;100350.81;4972837;28;20314;-72
2022/12/05 02:35:22;;;;;;;30.95;18.63;;;;;;;2.83;100.00;100362.31;4977317;28;20219;-74
2022/12/05 02:37:55;;;;;;;32.67;18.13;;;;;;;2.87;100.00;100358.69;4981280;28;20198;-72
2022/12/05 02:40:26;;;;;;;31.75;18.60;;;;;;;2.78;100.00;100359.72;4986767;28;20234;-74
2022/12/05 02:42:58;;;;;;;29.38;18.67;;;;;;;2.84;100.00;100356.06;4982954;28;20223;-73
2022/12/05 02:45:30;;;;;;;32.47;19.45;;;;;;;2.93;100.00;100350.63;4989473;28;20203;-74
2022/12/05 02:47:59;;;;;;;29.75;18.63;;;;;;;3.01;100.00;100335.44;4980282;28;20204;-72
2022/12/05 02:50:33;;;;;;;29.30;18.48;;;;;;;3.09;100.00;100349.47;4987531;28;20395;-73
2022/12/05 02:53:05;;;;;;;27.75;16.85;;;;;;;3.16;100.00;100347.59;4985747;28;20609;-75
2022/12/05 02:55:33;;;;;;;33.08;18.08;;;;;;;3.18;100.00;100350.25;4979976;28;20214;-73
2022/12/05 02:58:05;;;;;;;29.73;18.13;;;;;;;3.20;100.00;100348.44;4976219;28;20188;-74
2022/12/05 03:00:35;;;;;;;31.52;19.95;;;;;;;3.12;100.00;100344.13;4967492;28;20749;-75
2022/12/05 03:03:02;;;;;;;33.38;19.00;;;;;;;3.20;100.00;100346.66;4967006;28;20608;-74
2022/12/05 03:05:38;;;;;;;29.67;17.23;;;;;;;3.21;100.00;100352.84;4977301;28;20210;-74
2022/12/05 03:08:08;;;;;;;28.00;17.70;;;;;;;3.23;100.00;100348.38;5012356;28;20194;-73
2022/12/05 03:10:38;;;;;;;29.88;17.95;;;;;;;3.27;100.00;100352.75;5036829;28;20848;-73
2022/12/05 03:13:11;;;;;;;30.25;19.10;;;;;;;3.24;100.00;100348.38;5027273;28;20660;-73
2022/12/05 03:15:43;;;;;;;29.60;18.15;;;;;;;3.29;100.00;100351.81;5031258;28;20186;-73
2022/12/05 03:18:16;;;;;;;31.77;17.95;;;;;;;3.18;100.00;100350.25;5026503;28;20253;-73
2022/12/05 03:20:48;;;;;;;31.73;17.77;;;;;;;3.02;100.00;100358.47;5034633;28;20250;-73
2022/12/05 03:23:20;;;;;;;31.05;17.98;;;;;;;3.18;100.00;100359.09;5038578;28;20201;-72
2022/12/05 03:25:53;;;;;;;29.67;19.25;;;;;;;3.14;100.00;100365.38;5043251;28;20202;-73
2022/12/05 03:28:24;;;;;;;28.63;17.45;;;;;;;3.01;100.00;100361.13;5042451;28;20212;-73
2022/12/05 03:30:56;;;;;;;28.45;17.15;;;;;;;2.98;100.00;100375.38;5043907;28;20218;-72
2022/12/05 03:33:26;;;;;;;35.17;17.92;;;;;;;2.90;100.00;100374.63;5046984;28;20185;-72
2022/12/05 03:36:01;;;;;;;31.65;18.27;;;;;;;2.74;100.00;100373.94;5040041;28;20213;-73
2022/12/05 03:38:34;;;;;;;35.72;18.90;;;;;;;2.89;100.00;100373.75;5039990;28;20284;-73
2022/12/05 03:41:08;;;;;;;33.92;18.40;;;;;;;2.82;100.00;100384.47;5046408;28;20697;-73
2022/12/05 03:43:43;;;;;;;29.20;17.42;;;;;;;2.77;100.00;100384.53;5048289;28;20230;-73
2022/12/05 03:46:18;;;;;;;31.33;18.73;;;;;;;2.82;100.00;100384.47;5041080;28;20284;-73
2022/12/05 03:48:51;;;;;;;30.38;18.02;;;;;;;2.82;100.00;100392.44;5048391;28;20200;-74
2022/12/05 03:51:20;;;;;;;39.17;21.33;;;;;;;2.77;100.00;100397.84;5039027;28;20308;-72
2022/12/05 03:53:51;;;;;;;31.23;19.05;;;;;;;2.70;100.00;100399.69;5036549;28;20206;-73
2022/12/05 03:56:22;;;;;;;32.28;18.90;;;;;;;2.81;100.00;100396.91;5037169;28;20202;-72
2022/12/05 03:58:55;;;;;;;36.70;20.08;;;;;;;2.73;100.00;100396.13;5045699;28;20216;-73
2022/12/05 04:01:25;;;;;;;32.15;19.00;;;;;;;2.78;100.00;100396.94;5037196;28;20601;-73
2022/12/05 04:03:56;;;;;;;33.40;18.88;;;;;;;2.75;100.00;100396.97;5050609;28;20201;-71
2022/12/05 04:06:28;;;;;;;32.13;19.20;;;;;;;2.80;100.00;100399.56;5034477;28;20209;-74
2022/12/05 04:08:58;;;;;;;33.22;18.17;;;;;;;2.82;100.00;100405.75;5041660;28;20542;-74
2022/12/05 04:11:29;;;;;;;35.67;20.35;;;;;;;2.80;100.00;100403.09;5035248;28;20337;-73
2022/12/05 04:14:05;;;;;;;35.03;19.67;;;;;;;2.71;100.00;100400.56;5031096;28;20212;-72
2022/12/05 04:19:28;;;;;;;32.95;19.55;;;;;;;2.77;100.00;100408.47;5050189;28;20204;-73
2022/12/05 04:21:56;;;;;;;35.83;20.05;;;;;;;2.71;100.00;100403.22;5063092;28;20221;-72
2022/12/05 04:27:28;;;;;;;35.40;20.30;;;;;;;2.83;100.00;100400.41;5026029;28;20197;-71
2022/12/05 04:30:02;;;;;;;44.47;21.02;;;;;;;2.83;100.00;100391.56;5037196;28;20200;-72
2022/12/05 04:32:37;;;;;;;45.88;21.80;;;;;;;2.91;100.00;100403.84;5038234;28;20299;-73
2022/12/05 04:35:10;;;;;;;35.20;18.98;;;;;;;2.83;100.00;100411.06;5042483;28;20569;-74
2022/12/05 04:37:40;;;;;;;38.30;21.52;;;;;;;2.88;100.00;100406.53;5036059;28;20555;-74
2022/12/05 04:40:12;;;;;;;33.20;20.20;;;;;;;2.91;100.00;100414.47;5039976;28;20194;-73
2022/12/05 04:42:42;;;;;;;35.97;20.48;;;;;;;3.02;100.00;100421.44;5026622;28;20225;-73
2022/12/05 04:45:13;;;;;;;37.70;19.80;;;;;;;2.91;100.00;100414.47;5036088;28;20583;-73
2022/12/05 04:47:43;;;;;;;35.97;19.52;;;;;;;2.95;100.00;100415.31;5032651;28;20284;-72
2022/12/05 04:50:12;;;;;;;42.60;20.83;;;;;;;2.84;100.00;100428.75;5033410;28;20206;-72
2022/12/05 04:52:41;;;;;;;38.97;20.55;;;;;;;2.93;100.00;100422.44;5039339;28;20217;-72
2022/12/05 04:55:10;;;;;;;38.33;20.15;;;;;;;2.92;100.00;100429.56;5035726;28;20202;-73
2022/12/05 04:57:42;;;;;;;42.40;20.80;;;;;;;2.78;100.00;100439.50;5032443;28;20688;-73
2022/12/05 05:00:10;;;;;;;35.05;20.30;;;;;;;2.95;100.00;100428.63;5030403;28;20198;-71
2022/12/05 05:02:44;;;;;;;36.72;19.30;;;;;;;2.92;100.00;100429.56;5034952;28;20233;-71
2022/12/05 05:05:14;;;;;;;38.45;21.40;;;;;;;2.85;100.00;100429.63;5041400;28;20233;-71
2022/12/05 05:07:44;;;;;;;37.88;20.73;;;;;;;2.86;100.00;100436.72;5032809;28;20292;-73
2022/12/05 05:10:14;;;;;;;37.28;21.02;;;;;;;2.86;100.00;100431.41;5029829;28;20558;-72
2022/12/05 05:12:41;;;;;;;41.78;19.17;;;;;;;2.88;100.00;100435.81;5041511;28;20690;-70
2022/12/05 05:15:08;;;;;;;32.00;19.83;;;;;;;2.90;100.00;100433.13;5034878;28;20667;-72
2022/12/05 05:17:35;;;;;;;38.45;19.20;;;;;;;2.90;100.00;100438.47;5028736;28;20284;-73
2022/12/05 05:22:44;;;;;;;35.88;19.95;;;;;;;2.80;100.00;100442.13;5040529;28;20599;-73
2022/12/05 05:25:11;;;;;;;36.22;19.25;;;;;;;2.84;100.00;100438.53;5042716;28;20596;-73
2022/12/05 05:27:37;;;;;;;46.53;19.63;;;;;;;2.89;100.00;100442.00;5039309;28;20208;-73
2022/12/05 05:30:05;;;;;;;36.08;20.95;;;;;;;2.80;100.00;100436.81;5043444;28;20672;-72
2022/12/05 05:32:32;;;;;;;45.22;22.02;;;;;;;2.84;100.00;100435.88;5028706;28;20224;-73
2022/12/05 05:34:59;;;;;;;39.30;21.23;;;;;;;2.80;100.00;100443.00;5036595;28;20214;-75
2022/12/05 05:37:26;;;;;;;40.10;20.63;;;;;;;2.82;100.00;100437.66;5035960;28;20609;-73
2022/12/05 05:39:53;;;;;;;44.05;21.23;;;;;;;2.79;100.00;100446.56;5038917;28;20600;-73
2022/12/05 05:42:20;;;;;;;42.47;20.80;;;;;;;2.88;100.00;100443.78;5033827;28;20253;-74
2022/12/05 05:44:46;;;;;;;45.35;22.90;;;;;;;2.85;100.00;100445.59;5040244;28;20204;-74
2022/12/05 05:47:13;;;;;;;43.30;22.38;;;;;;;2.82;100.00;100440.34;5030357;28;20190;-76
2022/12/05 05:49:39;;;;;;;42.95;22.10;;;;;;;2.83;100.00;100424.38;5044692;28;20193;-74
2022/12/05 05:52:06;;;;;;;43.53;21.02;;;;;;;2.92;100.00;100437.53;5057973;28;20281;-72
2022/12/05 05:54:34;;;;;;;46.92;23.88;;;;;;;2.83;100.00;100437.66;5046932;28;20202;-75
2022/12/05 05:57:00;;;;;;;49.17;23.67;;;;;;;2.98;100.00;100438.34;5055559;28;20186;-74
2022/12/05 05:59:27;;;;;;;51.08;23.85;;;;;;;2.91;100.00;100442.88;5062213;28;20288;-75
2022/12/05 06:01:53;;;;;;;41.22;21.63;;;;;;;2.93;100.00;100438.41;5032517;28;20253;-74
2022/12/05 06:04:20;;;;;;;42.50;21.33;;;;;;;2.90;100.00;100441.13;5038254;28;20190;-74
2022/12/05 06:06:46;;;;;;;41.20;21.23;;;;;;;2.94;100.00;100434.88;5053006;28;20201;-75
2022/12/05 06:09:13;;;;;;;41.15;20.70;;;;;;;3.00;100.00;100436.53;5036583;28;20533;-73
2022/12/05 06:11:41;;;;;;;43.42;21.27;;;;;;;3.06;100.00;100434.69;5032822;28;20222;-74
2022/12/05 06:14:08;;;;;;;43.72;23.42;;;;;;;3.13;100.00;100449.66;5032969;28;20230;-76
2022/12/05 06:16:35;;;;;;;41.65;22.20;;;;;;;3.02;100.00;100448.91;5037397;28;20206;-75
2022/12/05 06:19:02;;;;;;;43.67;21.42;;;;;;;3.00;100.00;100460.50;5044352;28;20232;-75
2022/12/05 06:21:28;;;;;;;43.50;23.13;;;;;;;2.92;100.00;100452.63;5042195;28;20666;-74
2022/12/05 06:23:55;;;;;;;46.88;20.50;;;;;;;3.00;100.00;100449.84;5037323;28;20201;-73
2022/12/05 06:26:23;;;;;;;44.22;22.63;;;;;;;3.08;100.00;100450.63;5036955;28;20269;-74
2022/12/05 06:28:51;;;;;;;47.17;21.58;;;;;;;3.05;100.00;100458.63;5036298;28;20202;-75
2022/12/05 06:31:19;;;;;;;46.70;24.35;;;;;;;3.03;100.00;100456.03;5036993;28;20218;-73
2022/12/05 06:33:46;;;;;;;45.08;22.65;;;;;;;3.08;100.00;100470.13;5038733;28;20212;-75
2022/12/05 06:36:15;;;;;;;46.97;20.85;;;;;;;3.13;100.00;100462.97;5037862;28;20202;-73
2022/12/05 06:38:42;;;;;;;46.22;21.92;;;;;;;3.10;100.00;100481.63;5036813;28;20211;-75
2022/12/05 06:41:11;;;;;;;38.72;21.52;;;;;;;3.14;100.00;100471.81;5036985;28;20238;-75
2022/12/05 06:43:37;;;;;;;46.03;22.30;;;;;;;3.13;100.00;100473.59;5037600;28;20610;-74
2022/12/05 06:46:06;;;;;;;49.22;21.95;;;;;;;3.17;100.00;100477.13;5038924;28;20201;-74
2022/12/05 06:48:34;;;;;;;44.75;22.10;;;;;;;3.18;100.00;100480.66;5038955;28;20286;-76
2022/12/05 06:51:01;;;;;;;41.67;22.55;;;;;;;3.02;100.00;100480.84;5041358;28;20285;-74
2022/12/05 06:53:28;;;;;;;38.67;20.58;;;;;;;3.05;100.00;100482.59;5042499;28;20206;-73
2022/12/05 06:55:56;;;;;;;38.78;21.65;;;;;;;3.07;100.00;100481.66;5037701;28;20774;-74
2022/12/05 06:58:23;;;;;;;47.47;21.80;;;;;;;3.05;100.00;100479.94;5025728;28;20217;-74
2022/12/05 07:03:35;;;;;;;37.90;21.15;;;;;;;3.05;100.00;100482.59;5023116;28;20573;-74
2022/12/05 07:06:02;;;;;;;38.65;21.42;;;;;;;3.11;100.00;100491.38;5016654;28;20234;-73
2022/12/05 07:08:29;;;;;;;42.08;20.25;;;;;;;3.07;100.00;100494.97;5026515;28;20204;-75
2022/12/05 07:10:55;;;;;;;44.08;21.00;;;;;;;3.12;100.00;100501.13;5037030;28;20226;-73
2022/12/05 07:13:22;;;;;;;46.00;20.00;;;;;;;3.16;100.00;100504.63;5036813;28;20199;-75
2022/12/05 07:15:50;;;;;;;43.60;21.38;;;;;;;3.11;100.00;100511.78;5036658;28;20570;-75
2022/12/05 07:18:18;;;;;;;37.60;20.25;;;;;;;3.08;100.00;100506.53;5034326;28;20665;-74
2022/12/05 07:20:55;;;;;;;40.72;21.83;;;;;;;3.17;100.00;100513.50;5036966;28;20208;-73
2022/12/05 07:23:21;;;;;;;45.20;21.98;;;;;;;3.17;100.00;100510.84;5036539;28;20407;-74
2022/12/05 07:25:49;;;;;;;42.90;21.55;;;;;;;3.17;100.00;100510.84;5036064;28;20289;-73
2022/12/05 07:28:15;;;;;;;40.53;21.60;;;;;;;3.19;100.00;100514.34;5043963;28;20240;-74
2022/12/05 07:30:42;;;;;;;38.60;20.95;;;;;;;3.13;100.00;100521.50;5046157;28;20308;-75
2022/12/05 07:33:08;;;;;;;46.75;22.23;;;;;;;3.12;100.00;100517.09;5047178;28;20228;-72
2022/12/05 07:35:35;;;;;;;46.53;21.92;;;;;;;3.12;100.00;100517.09;5046316;28;20273;-72
2022/12/05 07:38:03;;;;;;;43.92;22.35;;;;;;;3.15;100.00;100521.50;5044787;28;20621;-75
2022/12/05 07:40:29;;;;;;;43.25;22.38;;;;;;;3.24;100.00;100524.03;5042027;28;20202;-75
2022/12/05 07:42:56;;;;;;;36.00;19.45;;;;;;;3.16;100.00;100531.22;5040400;28;20312;-73
2022/12/05 07:45:22;;;;;;;45.33;23.77;;;;;;;3.29;100.00;100532.84;5039204;28;20548;-75
2022/12/05 07:47:49;;;;;;;40.72;21.35;;;;;;;3.27;100.00;100531.09;5037712;28;20212;-75
2022/12/05 07:50:16;;;;;;;35.97;20.05;;;;;;;3.13;100.00;100537.47;5043936;28;20252;-77
2022/12/05 07:52:42;;;;;;;40.38;19.95;;;;;;;3.21;100.00;100539.16;5041932;28;20301;-74
2022/12/05 07:55:10;;;;;;;37.58;20.52;;;;;;;3.32;100.00;100547.88;5039518;28;20208;-75
2022/12/05 07:57:37;;;;;;;42.97;22.38;;;;;;;3.20;100.00;100548.06;5041187;28;20236;-75
2022/12/05 08:00:05;;;;;;;44.65;21.70;;;;;;;3.26;100.00;100542.66;5044684;28;20204;-76
2022/12/05 08:02:32;;;;;;;41.10;21.27;;;;;;;3.18;100.00;100547.19;5045184;28;20576;-74
2022/12/05 08:04:58;;;;;;;44.67;22.60;;;;;;;3.18;100.00;100555.19;5036514;28;20580;-75
2022/12/05 08:07:25;;;;;;;39.65;20.83;;;;;;;3.19;100.00;100556.91;5035330;28;20205;-73
2022/12/05 08:09:52;;;;;;;41.40;21.42;;;;;;;3.29;100.00;100556.78;5034687;28;20662;-74
2022/12/05 08:12:19;;;;;;;41.75;21.02;;;;;;;3.24;100.00;100563.09;5034619;28;20240;-75
2022/12/05 08:14:46;;;;;;;42.20;20.42;;;;;;;3.30;100.00;100563.00;5044533;28;20288;-76
2022/12/05 08:17:12;;;;;;;45.85;22.25;;;;;;;3.19;100.00;100567.56;5051813;28;20226;-74
2022/12/05 08:19:39;;;;;;;45.78;22.95;;;;;;;3.11;100.00;100568.53;5048137;28;20217;-72
2022/12/05 08:22:06;;;;;;;44.65;22.30;;;;;;;3.27;100.00;100569.25;5044017;28;20240;-74
2022/12/05 08:24:32;;;;;;;47.20;22.20;;;;;;;3.39;100.00;100557.53;5036861;28;20208;-74
2022/12/05 08:26:59;;;;;;;41.30;20.77;;;;;;;3.37;100.00;100562.03;5037698;28;20745;-72
2022/12/05 08:29:27;;;;;;;42.25;21.90;;;;;;;3.32;100.00;100562.09;5038464;28;20206;-75
2022/12/05 08:31:53;;;;;;;41.13;22.02;;;;;;;3.54;100.00;100568.00;5039761;28;20214;-76
2022/12/05 08:34:20;;;;;;;44.15;21.10;;;;;;;3.41;100.00;100568.19;5036998;28;20677;-74
2022/12/05 08:36:47;;;;;;;45.78;22.35;;;;;;;3.38;100.00;100581.53;5038694;28;20202;-73
2022/12/05 08:39:16;;;;;;;42.13;22.10;;;;;;;3.42;100.00;100580.59;5033769;28;20209;-73
2022/12/05 08:41:43;;;;;;;46.00;22.05;;;;;;;3.49;100.00;100583.16;5034067;28;20225;-75
2022/12/05 08:44:15;;;;;;;45.08;21.60;;;;;;;3.47;100.00;100584.09;5038250;28;20679;-73
2022/12/05 08:46:44;;;;;;;38.45;20.23;;;;;;;3.56;100.00;100597.28;5045926;28;20205;-75
2022/12/05 08:49:11;;;;;;;41.15;21.00;;;;;;;3.52;100.00;100599.09;5034094;28;20259;-75
2022/12/05 08:51:38;;;;;;;42.80;20.38;;;;;;;3.61;100.00;100603.41;5034890;28;20329;-75
2022/12/05 08:54:05;;;;;;;44.92;21.42;;;;;;;3.49;100.00;100609.78;5035001;28;20204;-73
2022/12/05 08:56:32;;;;;;;40.63;21.52;;;;;;;3.58;100.00;100610.56;5034175;28;20227;-74
2022/12/05 08:59:00;;;;;;;44.83;22.92;;;;;;;3.64;100.00;100608.72;5033414;28;20204;-75
2022/12/05 09:01:30;;;;;;;47.00;23.83;;;;;;;3.51;100.00;100613.31;5033828;28;20221;-74
2022/12/05 09:03:59;;;;;;;45.05;23.05;;;;;;;3.54;100.00;100620.38;5034734;28;20238;-75
2022/12/05 09:06:28;;;;;;;44.20;22.00;;;;;;;3.52;100.00;100612.41;5036474;28;20297;-75
2022/12/05 09:08:56;;;;;;;46.47;23.73;;;;;;;3.55;100.00;100615.03;5035638;28;20209;-75
2022/12/05 09:11:26;;;;;;;49.30;23.05;;;;;;;3.44;100.00;100618.75;5035839;28;20316;-76
2022/12/05 09:13:55;;;;;;;44.88;20.83;;;;;;;3.50;100.00;100616.84;5035112;28;20298;-74
2022/12/05 09:16:23;;;;;;;51.88;25.65;;;;;;;3.49;100.00;100615.13;5034676;28;20204;-74
2022/12/05 09:18:51;;;;;;;54.83;24.33;;;;;;;3.55;100.00;100615.03;5033396;28;20237;-78
2022/12/05 09:21:21;;;;;;;50.70;22.13;;;;;;;3.70;100.00;100621.94;5033432;28;20233;-74
2022/12/05 09:23:49;;;;;;;43.13;21.88;;;;;;;3.86;100.00;100614.59;5033444;28;20205;-74
2022/12/05 09:26:18;;;;;;;52.85;24.90;;;;;;;3.83;100.00;100613.78;5033323;28;20206;-75
2022/12/05 09:28:45;;;;;;;46.45;23.23;;;;;;;3.80;100.00;100614.72;5033353;28;20292;-76
2022/12/05 09:31:14;;;;;;;50.88;24.45;;;;;;;3.64;100.00;100618.47;5044333;28;20287;-74
2022/12/05 09:33:41;;;;;;;51.38;23.92;;;;;;;3.75;100.00;100619.19;5037001;28;20208;-75
2022/12/05 09:36:11;;;;;;;48.50;24.00;;;;;;;3.82;100.00;100628.00;5035846;28;20301;-75
2022/12/05 09:38:39;;;;;;;55.40;23.90;;;;;;;3.87;100.00;100636.81;5034792;28;20190;-76
2022/12/05 09:41:16;;;;;;;45.58;24.20;;;;;;;3.67;100.00;100637.09;5035566;28;20232;-75
2022/12/05 09:43:51;;;;;;;46.75;21.40;;;;;;;3.68;100.00;100646.84;5035363;28;20265;-74
2022/12/05 09:46:24;;;;;;;45.45;22.05;;;;;;;3.63;100.00;100636.22;5035082;28;20189;-76
2022/12/05 09:48:52;;;;;;;49.72;25.98;;;;;;;3.74;100.00;100633.44;5034310;28;20205;-76
2022/12/05 09:51:19;;;;;;;45.30;22.50;;;;;;;3.79;100.00;100631.59;5033549;28;20226;-73
2022/12/05 09:53:47;;;;;;;41.08;21.58;;;;;;;3.78;100.00;100637.81;5035291;28;20213;-74
2022/12/05 09:56:21;;;;;;;37.88;21.10;;;;;;;3.83;100.00;100646.63;5034825;28;20261;-74
2022/12/05 09:58:50;;;;;;;40.33;21.33;;;;;;;3.86;100.00;100635.03;5033203;28;20190;-76
2022/12/05 10:01:27;;;;;;;36.70;19.20;;;;;;;3.90;100.00;100632.31;5034195;28;20222;-75
2022/12/05 10:04:07;;;;;;;41.50;21.52;;;;;;;3.90;100.00;100624.31;5034392;28;20208;-75
2022/12/05 10:06:40;;;;;;;39.53;20.85;;;;;;;3.91;100.00;100627.84;5034886;28;20208;-76
2022/12/05 10:09:27;;;;;;;41.22;19.92;;;;;;;4.03;100.00;100621.50;5034185;28;20735;-75
2022/12/05 10:12:03;;;;;;;35.70;19.60;;;;;;;3.96;100.00;100629.56;5034264;28;20281;-73
2022/12/05 10:14:41;;;;;;;35.65;19.38;;;;;;;4.02;100.00;100633.91;5033482;28;20197;-75
2022/12/05 10:17:16;;;;;;;35.50;19.75;;;;;;;3.88;100.00;100626.13;5034817;28;20194;-74
2022/12/05 10:19:46;;;;;;;38.20;18.95;;;;;;;3.94;100.00;100625.16;5032600;28;20208;-76
2022/12/05 10:22:18;;;;;;;34.22;18.00;;;;;;;4.01;100.00;100628.63;5033485;28;20234;-73
2022/12/05 10:24:50;;;;;;;36.25;18.77;;;;;;;4.00;100.00;100626.84;5034830;28;20183;-76
2022/12/05 10:27:21;;;;;;;34.20;18.38;;;;;;;4.04;100.00;100617.91;5035018;28;20313;-76
2022/12/05 10:29:56;;;;;;;32.63;18.58;;;;;;;4.00;100.00;100614.41;5032609;28;20214;-73
2022/12/05 10:32:28;;;;;;;38.83;22.15;;;;;;;3.95;100.00;100617.13;5033331;28;20217;-74
2022/12/05 10:35:02;;;;;;;34.47;19.52;;;;;;;3.97;100.00;100619.78;5037139;28;20277;-74
2022/12/05 10:37:29;;;;;;;33.40;19.70;;;;;;;4.06;100.00;100619.63;5035946;28;20628;-74
2022/12/05 10:39:58;;;;;;;31.10;19.17;;;;;;;4.14;100.00;100620.41;5034624;28;20296;-73
2022/12/05 10:42:28;;;;;;;35.17;18.40;;;;;;;4.17;100.00;100619.47;5032631;28;20226;-75
2022/12/05 10:44:58;;;;;;;32.60;19.20;;;;;;;4.23;100.00;100614.06;5032385;28;20198;-75
2022/12/05 10:47:25;;;;;;;40.67;18.85;;;;;;;4.31;100.00;100609.47;5033006;28;20261;-75
2022/12/05 10:49:52;;;;;;;33.78;19.48;;;;;;;4.28;100.00;100606.00;5032443;28;20571;-75
2022/12/05 10:52:19;;;;;;;35.20;19.30;;;;;;;4.41;100.00;100606.66;5032557;28;20653;-74
2022/12/05 10:54:49;;;;;;;31.73;19.38;;;;;;;4.43;100.00;100604.84;5032630;28;20684;-73
2022/12/05 10:57:26;;;;;;;32.80;17.65;;;;;;;4.35;100.00;100608.53;5032480;28;20292;-75
2022/12/05 10:59:53;;;;;;;29.52;17.73;;;;;;;4.37;100.00;100600.50;5037701;28;20637;-74
2022/12/05 11:02:24;;;;;;;31.95;17.58;;;;;;;4.38;100.00;100597.78;5036829;28;20234;-75
2022/12/05 11:04:52;;;;;;;30.27;17.00;;;;;;;4.46;100.00;100599.47;5039688;28;20203;-77
2022/12/05 11:07:30;;;;;;;30.92;17.35;;;;;;;4.43;100.00;100595.03;5038509;28;20228;-73
2022/12/05 11:09:57;;;;;;;30.00;17.17;;;;;;;4.33;100.00;100606.78;5037509;28;20223;-74
2022/12/05 11:12:29;;;;;;;26.10;16.30;;;;;;;4.32;100.00;100599.69;5041957;28;20288;-75
2022/12/05 11:15:01;;;;;;;26.23;16.17;;;;;;;4.29;100.00;100603.28;5041068;28;20194;-75
2022/12/05 11:17:33;;;;;;;26.77;15.57;;;;;;;4.23;100.00;100602.50;5038087;28;20210;-72
2022/12/05 11:20:00;;;;;;;27.50;15.90;;;;;;;4.33;100.00;100605.00;5036945;28;20658;-75
2022/12/05 11:22:32;;;;;;;26.67;15.13;;;;;;;4.37;100.00;100601.38;5036929;28;20720;-74
2022/12/05 11:24:59;;;;;;;21.98;13.45;;;;;;;4.35;100.00;100613.84;5037184;28;20209;-74
2022/12/05 11:27:29;;;;;;;20.88;12.90;;;;;;;4.28;100.00;100614.00;5038710;28;20289;-71
2022/12/05 11:30:02;;;;;;;23.63;14.60;;;;;;;4.23;100.00;100624.72;5039297;28;20201;-75
2022/12/05 11:32:30;;;;;;;24.13;13.80;;;;;;;4.04;100.00;100620.56;5039261;28;20234;-76